createdAt,value
2019-04-23T00:02:25.119Z,10.78
2019-04-23T00:08:36.254Z,12.18
2019-04-23T00:14:41.052Z,8.83
2019-04-23T00:20:42.272Z,8.98
2019-04-23T00:27:01.883Z,8.90
2019-04-23T00:32:59.205Z,10.95
2019-04-23T00:38:54.250Z,12.25
2019-04-23T00:45:00.371Z,11.57
2019-04-23T00:51:22.749Z,10.88
2019-04-23T01:03:21.439Z,7.97
2019-04-23T01:09:44.105Z,14.03
2019-04-23T01:21:30.585Z,7.58
2019-04-23T01:28:17.480Z,9.30
2019-04-23T01:34:26.029Z,9.65
2019-04-23T01:40:31.900Z,8.90
2019-04-23T01:46:35.838Z,9.00
2019-04-23T01:52:45.554Z,9.45
2019-04-23T01:58:46.990Z,6.60
2019-04-23T02:04:55.123Z,7.58
2019-04-23T02:17:00.808Z,15.13
2019-04-23T02:54:26.807Z,9.55
2019-04-23T03:00:28.812Z,9.70
2019-04-23T03:06:32.188Z,5.92
2019-04-23T03:18:51.864Z,6.00
2019-04-23T03:25:07.139Z,8.75
2019-04-23T03:43:26.151Z,11.22
2019-04-23T03:49:32.815Z,6.17
2019-04-23T04:14:01.040Z,6.67
2019-04-23T04:26:04.580Z,7.50
2019-04-23T04:32:15.105Z,7.50
2019-04-23T04:38:38.675Z,7.65
2019-04-23T04:44:38.318Z,7.62
2019-04-23T04:50:26.607Z,11.15
2019-04-23T04:56:40.335Z,8.73
2019-04-23T05:02:53.922Z,9.13
2019-04-23T05:09:02.238Z,9.08
2019-04-23T05:14:56.766Z,5.55
2019-04-23T05:20:58.047Z,8.10
2019-04-23T05:26:57.952Z,6.50
2019-04-23T05:33:13.256Z,5.35
2019-04-23T05:39:15.478Z,9.13
2019-04-23T05:45:16.082Z,7.42
2019-04-23T05:51:28.308Z,10.03
2019-04-23T05:57:27.214Z,6.30
2019-04-23T06:03:38.430Z,9.65
2019-04-23T06:09:41.762Z,11.22
2019-04-23T06:15:46.766Z,10.03
2019-04-23T06:28:03.544Z,6.00
2019-04-23T06:34:12.507Z,9.63
2019-04-23T06:40:27.556Z,8.35
2019-04-23T06:46:21.268Z,6.42
2019-04-23T06:58:32.705Z,7.95
2019-04-23T07:04:43.341Z,5.85
2019-04-23T07:10:40.350Z,5.83
2019-04-23T07:16:47.016Z,7.33
2019-04-23T07:22:58.084Z,7.37
2019-04-23T07:29:00.004Z,6.78
2019-04-23T07:41:47.841Z,6.70
2019-04-23T07:48:10.867Z,10.13
2019-04-23T07:54:16.073Z,9.68
2019-04-23T08:00:24.044Z,14.98
2019-04-23T08:06:17.823Z,9.95
2019-04-23T08:12:31.930Z,10.05
2019-04-23T08:18:39.820Z,7.58
2019-04-23T08:25:11.005Z,9.05
2019-04-23T08:31:09.832Z,10.53
2019-04-23T08:37:14.997Z,9.78
2019-04-23T08:43:36.909Z,8.33
2019-04-23T08:49:46.817Z,6.55
2019-04-23T08:55:44.591Z,10.88
2019-04-23T09:01:55.670Z,9.63
2019-04-23T09:08:01.542Z,8.43
2019-04-23T09:13:55.808Z,10.15
2019-04-23T09:26:22.727Z,6.28
2019-04-23T09:38:34.855Z,7.03
2019-04-23T09:44:58.349Z,9.20
2019-04-23T09:50:55.497Z,8.40
2019-04-23T09:57:14.047Z,13.60
2019-04-23T10:02:55.531Z,9.38
2019-04-23T10:08:50.047Z,8.13
2019-04-23T10:14:57.735Z,6.85
2019-04-23T10:20:56.944Z,7.28
2019-04-23T10:27:01.970Z,10.68
2019-04-23T10:33:07.504Z,8.73
2019-04-23T10:39:21.185Z,9.78
2019-04-23T10:45:44.789Z,11.53
2019-04-23T10:52:12.966Z,10.15
2019-04-23T10:58:17.390Z,11.08
2019-04-23T11:04:39.435Z,8.28
2019-04-23T11:10:23.572Z,10.58
2019-04-23T11:22:45.234Z,8.70
2019-04-23T11:40:49.521Z,9.10
2019-04-23T11:53:10.393Z,11.00
2019-04-23T11:59:27.486Z,10.58
2019-04-23T12:05:46.636Z,8.98
2019-04-23T12:17:55.912Z,11.85
2019-04-23T12:24:39.452Z,9.70
2019-04-23T12:30:08.567Z,10.18
2019-04-23T12:36:42.049Z,14.33
2019-04-23T12:54:58.993Z,11.50
2019-04-23T13:00:51.589Z,12.95
2019-04-23T13:06:57.887Z,11.03
2019-04-23T13:13:11.176Z,10.98
2019-04-23T13:19:23.638Z,10.95
2019-04-23T13:25:45.666Z,11.43
2019-04-23T13:31:40.075Z,12.13
2019-04-23T13:38:09.257Z,11.57
2019-04-23T13:44:14.287Z,12.18
2019-04-23T13:50:07.442Z,12.50
2019-04-23T13:56:13.709Z,15.65
2019-04-23T14:02:24.394Z,13.32
2019-04-23T14:08:33.588Z,14.10
2019-04-23T14:14:52.157Z,14.45
2019-04-23T14:20:32.282Z,12.00
2019-04-23T14:26:38.416Z,15.75
2019-04-23T14:32:53.512Z,17.27
2019-04-23T14:45:13.605Z,16.93
2019-04-23T14:51:13.444Z,14.93
2019-04-23T14:57:15.910Z,15.53
2019-04-23T15:03:28.804Z,11.73
2019-04-23T15:09:28.080Z,11.85
2019-04-23T15:28:21.492Z,17.23
2019-04-23T15:40:00.773Z,13.40
2019-04-23T15:46:02.908Z,16.73
2019-04-23T15:52:10.800Z,17.90
2019-04-23T15:58:14.294Z,12.25
2019-04-23T16:03:53.046Z,15.08
2019-04-23T16:10:28.780Z,12.95
2019-04-23T16:16:37.367Z,13.00
2019-04-23T16:22:36.807Z,13.75
2019-04-23T16:29:07.359Z,12.88
2019-04-23T16:35:10.902Z,14.03
2019-04-23T16:40:57.229Z,11.88
2019-04-23T16:47:14.511Z,12.93
2019-04-23T16:53:21.438Z,11.55
2019-04-23T16:59:17.984Z,11.70
2019-04-23T17:05:33.771Z,14.68
2019-04-23T17:11:48.416Z,11.57
2019-04-23T17:17:41.149Z,13.15
2019-04-23T17:24:09.667Z,14.33
2019-04-23T17:29:51.050Z,13.95
2019-04-23T17:36:24.751Z,10.65
2019-04-23T17:42:40.144Z,16.60
2019-04-23T17:48:47.879Z,13.20
2019-04-23T17:54:55.271Z,13.58
2019-04-23T18:01:20.331Z,14.33
2019-04-23T18:07:44.634Z,14.13
2019-04-23T18:13:36.870Z,17.48
2019-04-23T18:19:47.203Z,18.02
2019-04-23T18:25:58.043Z,16.93
2019-04-23T18:38:29.085Z,22.15
2019-04-23T18:44:38.335Z,20.68
2019-04-23T18:50:57.054Z,22.02
2019-04-23T18:56:59.534Z,23.40
2019-04-23T19:03:11.272Z,21.68
2019-04-23T19:15:21.902Z,17.77
2019-04-23T19:21:29.900Z,21.42
2019-04-23T19:39:36.585Z,25.10
2019-04-23T19:45:56.818Z,17.70
2019-04-23T19:51:54.286Z,22.32
2019-04-23T20:03:56.271Z,13.03
2019-04-23T20:10:04.112Z,9.73
2019-04-23T20:16:19.541Z,9.70
2019-04-23T20:29:02.653Z,11.03
2019-04-23T20:40:54.020Z,11.95
2019-04-23T20:47:06.802Z,11.85
2019-04-23T20:52:59.614Z,11.53
2019-04-23T20:59:11.592Z,12.33
2019-04-23T21:05:19.600Z,10.03
2019-04-23T21:11:28.671Z,10.43
2019-04-23T21:17:42.372Z,11.43
2019-04-23T21:23:37.485Z,10.53
2019-04-23T21:29:53.766Z,11.12
2019-04-23T21:36:15.573Z,11.93
2019-04-23T21:42:32.746Z,12.68
2019-04-23T21:48:53.075Z,12.20
2019-04-23T21:54:47.166Z,11.43
2019-04-23T22:00:58.712Z,12.37
2019-04-23T22:13:13.010Z,12.68
2019-04-23T22:25:02.753Z,13.40
2019-04-23T22:31:18.681Z,15.45
2019-04-23T22:37:24.187Z,13.40
2019-04-23T22:43:29.972Z,16.57
2019-04-23T22:49:45.248Z,14.60
2019-04-23T22:56:01.701Z,15.72
2019-04-23T23:02:09.148Z,13.28
2019-04-23T23:08:10.684Z,13.20
2019-04-23T23:20:36.307Z,13.28
2019-04-23T23:44:57.158Z,13.18
2019-04-23T23:51:00.774Z,14.53
2019-04-23T23:57:11.197Z,14.38
